Thibodaux, LA (70301)

3:16 PM CST on January 25, 2015 (GMT -0600)
Abbey Heights | Change Station
CLOSE
Current Station
Personal Weather Station
Location: Thibodaux, LA
Elevation: 13 ft
Nearby Weather Stations

Elev 13 ft 29.82 °N, 90.84 °W | Updated 10 minutes ago

Clear
Clear
65.8 °F
Feels Like 65.8 °F
N
12.0
Wind Variable Wind from West
Gusts 18.0 mph

Today
High -- | Low -- °F
--% Chance of Precip.
Yesterday
High -- | Low -- °F
Precip. -- in
6:56 AM 5:34 PM
Waxing Crescent, 35% visible
Pressure 29.97 in
Visibility 7.0 miles
Clouds Clear
Dew Point 44 °F
Humidity 46%
Rainfall 0.00 in
Snow Depth Not available.
UV 3 out of 12
Pollen 7.90 out of 12
Air Quality Not available.
Flu Activity Not available.
METAR KHUM 252050Z 25015G25KT 7SM SKC 18/04 A2997 RMK RY12/30 CLSD ATIS B VA RY18... DV

More Conditions Fewer Conditions

Pressure 29.97 in
Visibility 7.0 miles
Clouds Clear
Dew Point 44 °F
Humidity 46%
Rainfall 0.00 in
Snow Depth Not available.
UV 3 out of 12
Pollen 7.90 out of 12
Air Quality Not available.
Flu Activity Not available.
METAR KHUM 252050Z 25015G25KT 7SM SKC 18/04 A2997 RMK RY12/30 CLSD ATIS B VA RY18... DV

More Conditions Fewer Conditions

10-Day Weather Forecast

Almanac

Astronomy

Jan. 25, 2015 Rise Set
Actual Time
Civil Twilight
Nautical Twilight
Astronomical Twilight
Moon
Length of Visible Light
Length of Day
Tomorrow will be .
, % of the Moon is Illuminated

Today's Extremes

State Highs State Lows

Community

WunderPhotos

Upload Photos

1,790,051 photos uploaded!

WunderBlogs® & News

Nearby

Air Quality

  Air Quality AQ Index Pollutant
Not available.

Snow Depth

Station Depth Elevation

Earthquake Activity

City Distance Mag. Time & Date
Minimum magnitude displayed is 2.5.

Coastal Water Temperatures

Place Temperature

Nearby Weather Stations